Time;durP1;ratioP1;P1;durP2;ratioP2;P2;SDS_P1;SDS_P2;PMS_P1;PMS_P2;Temp;Humidity;BMP_temperature;BMP_pressure;BME280_temperature;BME280_humidity;BME280_pressure;Samples;Min_cycle;Max_cycle;Signal;HPM_P1;HPM_P2
2021/07/28 00:00:02;;;;;;;3.03;2.72;;;22.90;99.90;;;;;;5033372;28;20075;-74
2021/07/28 00:02:28;;;;;;;3.00;2.40;;;22.90;99.90;;;;;;5033133;28;20108;-70
2021/07/28 00:04:53;;;;;;;3.63;2.58;;;22.90;99.90;;;;;;5032970;28;20145;-71
2021/07/28 00:07:19;;;;;;;2.75;2.30;;;22.90;99.90;;;;;;5033042;28;20449;-70
2021/07/28 00:09:45;;;;;;;3.08;2.63;;;22.90;99.90;;;;;;5033262;28;20025;-71
2021/07/28 00:12:10;;;;;;;3.08;2.47;;;22.90;99.90;;;;;;5033661;28;20026;-71
2021/07/28 00:14:36;;;;;;;2.80;2.40;;;22.80;99.90;;;;;;5033096;28;20079;-72
2021/07/28 00:17:03;;;;;;;2.55;2.20;;;22.80;99.90;;;;;;5015657;28;20057;-74
2021/07/28 00:19:33;;;;;;;3.33;2.65;;;22.90;99.90;;;;;;5033019;28;20036;-72
2021/07/28 00:24:43;;;;;;;2.50;2.30;;;22.90;99.90;;;;;;5031944;28;20123;-72
2021/07/28 00:27:09;;;;;;;3.00;2.70;;;22.80;99.90;;;;;;5014900;28;20497;-72
2021/07/28 00:29:37;;;;;;;3.47;2.90;;;22.80;99.90;;;;;;5032716;28;20067;-69
2021/07/28 00:32:03;;;;;;;3.13;2.30;;;22.80;99.90;;;;;;5033023;28;20030;-72
2021/07/28 00:34:29;;;;;;;2.88;2.35;;;22.80;99.90;;;;;;5032391;28;20029;-72
2021/07/28 00:36:55;;;;;;;2.70;2.22;;;22.80;99.90;;;;;;5032486;28;20080;-70
2021/07/28 00:39:20;;;;;;;2.40;2.17;;;22.80;99.90;;;;;;5032587;28;20033;-73
2021/07/28 00:41:46;;;;;;;2.63;2.42;;;22.80;99.90;;;;;;5032330;28;20025;-73
2021/07/28 00:44:12;;;;;;;2.67;2.33;;;22.80;99.90;;;;;;5015257;28;20022;-73
2021/07/28 00:46:39;;;;;;;2.70;2.22;;;22.80;99.90;;;;;;5032452;28;20038;-74
2021/07/28 00:49:05;;;;;;;2.80;2.33;;;22.70;99.90;;;;;;5032448;28;20033;-73
2021/07/28 00:51:31;;;;;;;3.00;2.58;;;22.70;99.90;;;;;;5032059;28;20034;-73
2021/07/28 00:53:57;;;;;;;2.85;2.30;;;22.80;99.90;;;;;;5032300;28;20523;-75
2021/07/28 00:56:24;;;;;;;2.63;2.42;;;22.70;99.90;;;;;;5032300;28;20025;-70
2021/07/28 00:58:50;;;;;;;3.38;2.33;;;22.70;99.90;;;;;;5032463;28;20113;-70
2021/07/28 01:01:16;;;;;;;3.65;2.40;;;22.70;99.90;;;;;;5014156;28;20112;-72
2021/07/28 01:03:42;;;;;;;2.47;2.28;;;22.70;99.90;;;;;;5032028;28;20025;-69
2021/07/28 01:06:10;;;;;;;3.22;2.70;;;22.70;99.90;;;;;;5032572;28;20056;-71
2021/07/28 01:08:36;;;;;;;2.60;2.40;;;22.70;99.90;;;;;;5031805;28;20435;-72
2021/07/28 01:11:03;;;;;;;2.90;2.50;;;22.70;99.90;;;;;;5032233;28;20029;-71
2021/07/28 01:13:31;;;;;;;3.30;2.55;;;22.70;99.90;;;;;;5031636;28;20025;-70
2021/07/28 01:16:04;;;;;;;3.17;2.38;;;22.70;99.90;;;;;;5031903;28;20033;-71
2021/07/28 01:18:30;;;;;;;2.88;2.55;;;22.70;99.90;;;;;;5031386;28;20048;-72
2021/07/28 01:20:56;;;;;;;3.85;2.38;;;22.70;99.90;;;;;;5031693;28;20038;-72
2021/07/28 01:23:26;;;;;;;2.78;2.53;;;22.60;99.90;;;;;;5031477;28;20021;-71
2021/07/28 01:25:53;;;;;;;3.03;2.47;;;22.60;99.90;;;;;;5031892;28;20044;-71
2021/07/28 01:28:21;;;;;;;2.55;2.35;;;22.70;99.90;;;;;;5031356;28;20028;-73
2021/07/28 01:30:57;;;;;;;3.30;2.65;;;22.60;99.90;;;;;;5031704;28;20021;-70
2021/07/28 01:33:22;;;;;;;3.05;2.75;;;22.60;99.90;;;;;;5031404;28;20025;-70
2021/07/28 01:35:48;;;;;;;3.42;2.50;;;22.60;99.90;;;;;;5031611;28;20029;-71
2021/07/28 01:38:14;;;;;;;2.58;2.17;;;22.60;99.90;;;;;;5031615;28;20021;-72
2021/07/28 01:40:39;;;;;;;2.90;2.60;;;22.60;99.90;;;;;;5032001;28;20044;-70
2021/07/28 01:43:15;;;;;;;3.63;2.35;;;22.60;99.90;;;;;;5014109;28;20022;-73
2021/07/28 01:45:43;;;;;;;2.75;2.40;;;22.60;99.90;;;;;;5031828;28;20033;-71
2021/07/28 01:48:09;;;;;;;2.72;2.22;;;22.50;99.90;;;;;;5031803;28;20493;-72
2021/07/28 01:50:35;;;;;;;3.40;2.80;;;22.60;99.90;;;;;;5030947;28;20028;-72
2021/07/28 01:53:03;;;;;;;3.40;2.35;;;22.60;99.90;;;;;;5031381;28;20018;-71
2021/07/28 01:55:29;;;;;;;3.00;2.20;;;22.60;99.90;;;;;;5031039;28;20552;-71
2021/07/28 01:57:55;;;;;;;4.32;2.72;;;22.60;99.90;;;;;;5031530;28;20109;-71
2021/07/28 02:00:22;;;;;;;2.83;2.50;;;22.50;99.90;;;;;;5030986;28;20035;-71
2021/07/28 02:02:47;;;;;;;2.63;2.42;;;22.60;99.90;;;;;;5030703;28;20034;-72
2021/07/28 02:05:13;;;;;;;3.50;2.50;;;22.50;99.90;;;;;;5030957;28;20385;-70
2021/07/28 02:07:39;;;;;;;2.47;2.13;;;22.50;99.90;;;;;;5031628;28;20033;-73
2021/07/28 02:10:05;;;;;;;3.63;2.33;;;22.50;99.90;;;;;;5031240;28;20059;-74
2021/07/28 02:12:31;;;;;;;2.67;2.45;;;22.50;99.90;;;;;;5031069;28;20033;-72
2021/07/28 02:14:57;;;;;;;2.53;2.33;;;22.50;99.90;;;;;;5031062;28;20385;-73
2021/07/28 02:17:23;;;;;;;3.20;2.50;;;22.50;99.90;;;;;;5030682;28;20465;-72
2021/07/28 02:19:48;;;;;;;2.58;2.20;;;22.50;99.90;;;;;;5030988;28;20034;-73
2021/07/28 02:22:14;;;;;;;2.88;2.30;;;22.50;99.90;;;;;;5030658;28;20083;-72
2021/07/28 02:24:41;;;;;;;3.75;2.63;;;22.50;99.90;;;;;;5025911;28;20022;-73
2021/07/28 02:27:07;;;;;;;3.28;2.42;;;22.50;99.90;;;;;;5011464;28;20382;-72
2021/07/28 02:29:34;;;;;;;3.10;2.30;;;22.50;99.90;;;;;;5025177;28;20025;-75
2021/07/28 02:32:01;;;;;;;2.38;2.17;;;22.50;99.90;;;;;;5035015;28;20037;-73
2021/07/28 02:34:28;;;;;;;2.83;2.40;;;22.40;99.90;;;;;;5034966;28;20053;-73
2021/07/28 02:36:53;;;;;;;2.70;2.33;;;22.40;99.90;;;;;;5035062;28;20497;-71
2021/07/28 02:39:19;;;;;;;3.42;2.35;;;22.40;99.90;;;;;;5034455;28;20156;-74
2021/07/28 02:41:44;;;;;;;2.83;2.13;;;22.40;99.90;;;;;;5034942;28;20028;-73
2021/07/28 02:44:10;;;;;;;2.40;2.20;;;22.40;99.90;;;;;;5035275;28;20037;-73
2021/07/28 02:46:36;;;;;;;2.50;2.28;;;22.40;99.90;;;;;;5034208;28;20040;-70
2021/07/28 02:49:01;;;;;;;3.03;2.35;;;22.40;99.90;;;;;;5034617;28;20091;-72
2021/07/28 02:51:27;;;;;;;2.50;2.30;;;22.40;99.90;;;;;;5033861;28;20034;-71
2021/07/28 02:53:52;;;;;;;2.50;2.25;;;22.40;99.90;;;;;;5016635;28;20435;-69
2021/07/28 02:56:18;;;;;;;3.50;2.45;;;22.40;99.90;;;;;;5015725;28;20393;-70
2021/07/28 02:58:44;;;;;;;3.63;2.35;;;22.40;99.90;;;;;;5015017;28;20014;-70
2021/07/28 03:01:09;;;;;;;3.05;2.20;;;22.40;99.90;;;;;;5030886;28;20501;-70
2021/07/28 03:03:35;;;;;;;3.05;2.38;;;22.40;99.90;;;;;;5033328;28;20022;-71
2021/07/28 03:06:02;;;;;;;5.30;2.50;;;22.40;99.90;;;;;;5034264;28;20037;-74
2021/07/28 03:08:27;;;;;;;2.83;2.10;;;22.40;99.90;;;;;;5034389;28;20021;-71
2021/07/28 03:10:53;;;;;;;3.05;2.15;;;22.40;99.90;;;;;;5034522;28;20022;-71
2021/07/28 03:13:19;;;;;;;3.08;2.42;;;22.40;99.90;;;;;;5033939;28;20033;-70
2021/07/28 03:15:44;;;;;;;3.63;2.42;;;22.30;99.90;;;;;;5034431;28;20389;-71
2021/07/28 03:18:10;;;;;;;2.70;2.20;;;22.30;99.90;;;;;;5034702;28;20029;-71
2021/07/28 03:20:36;;;;;;;2.65;2.00;;;22.30;99.90;;;;;;5033829;28;20083;-70
2021/07/28 03:23:02;;;;;;;3.17;2.10;;;22.30;99.90;;;;;;5034070;28;20121;-71
2021/07/28 03:25:27;;;;;;;2.40;2.20;;;22.30;99.90;;;;;;5033223;28;20044;-72
2021/07/28 03:27:53;;;;;;;4.00;2.20;;;22.30;99.90;;;;;;5034196;28;20436;-72
2021/07/28 03:30:18;;;;;;;3.40;2.30;;;22.30;99.90;;;;;;5033257;28;20418;-72
2021/07/28 03:32:44;;;;;;;2.40;2.10;;;22.30;99.90;;;;;;5033721;28;20120;-70
2021/07/28 03:35:10;;;;;;;2.15;1.75;;;22.30;99.90;;;;;;5034398;28;20028;-73
2021/07/28 03:37:35;;;;;;;2.70;2.28;;;22.30;99.90;;;;;;5033813;28;20071;-71
2021/07/28 03:40:01;;;;;;;3.05;2.15;;;22.30;99.90;;;;;;5033373;28;20076;-72
2021/07/28 03:42:31;;;;;;;3.13;2.05;;;22.30;99.90;;;;;;5033579;28;20025;-74
2021/07/28 03:44:58;;;;;;;2.40;1.90;;;22.30;99.90;;;;;;5033465;28;20481;-74
2021/07/28 03:47:24;;;;;;;2.38;1.98;;;22.30;99.90;;;;;;5033608;28;20496;-73
2021/07/28 03:49:50;;;;;;;2.60;2.22;;;22.20;99.90;;;;;;5033416;28;20118;-69
2021/07/28 03:52:15;;;;;;;2.70;2.30;;;22.20;99.90;;;;;;5033378;28;20068;-73
2021/07/28 03:54:43;;;;;;;2.30;2.08;;;22.20;99.90;;;;;;5033977;28;20018;-73
2021/07/28 03:57:10;;;;;;;2.58;2.28;;;22.20;99.90;;;;;;5034142;28;20037;-75
2021/07/28 03:59:36;;;;;;;3.08;2.10;;;22.30;99.90;;;;;;5033577;28;20056;-72
2021/07/28 04:02:01;;;;;;;3.00;2.15;;;22.20;99.90;;;;;;5033749;28;20034;-72
2021/07/28 04:04:27;;;;;;;2.85;2.17;;;22.20;99.90;;;;;;5032987;28;20049;-72
2021/07/28 04:06:53;;;;;;;2.25;1.80;;;22.20;99.90;;;;;;5033186;28;20041;-73
2021/07/28 04:09:18;;;;;;;2.83;2.15;;;22.20;99.90;;;;;;5015310;28;20025;-74
2021/07/28 04:11:44;;;;;;;2.25;1.80;;;22.20;99.90;;;;;;5033617;28;20026;-73
2021/07/28 04:14:09;;;;;;;2.58;2.17;;;22.20;99.90;;;;;;5033599;28;20076;-75
2021/07/28 04:16:35;;;;;;;3.28;2.17;;;22.20;99.90;;;;;;5032606;28;20036;-75
2021/07/28 04:19:00;;;;;;;3.17;2.00;;;22.20;99.90;;;;;;5033198;28;20022;-71
2021/07/28 04:21:26;;;;;;;3.20;1.88;;;22.20;99.90;;;;;;5033005;28;20462;-74
2021/07/28 04:23:52;;;;;;;2.60;2.13;;;22.20;99.90;;;;;;5033088;28;20030;-76
2021/07/28 04:26:17;;;;;;;2.45;1.88;;;22.20;99.90;;;;;;5032496;28;20088;-72
2021/07/28 04:28:43;;;;;;;3.28;2.45;;;22.20;99.90;;;;;;5032954;28;20079;-73
2021/07/28 04:31:09;;;;;;;3.38;2.20;;;22.20;99.90;;;;;;5032918;28;20044;-74
2021/07/28 04:33:34;;;;;;;3.45;2.10;;;22.20;99.90;;;;;;5032804;28;20021;-77
2021/07/28 04:36:00;;;;;;;3.13;2.33;;;22.20;99.90;;;;;;5032652;28;20025;-72
2021/07/28 04:38:26;;;;;;;2.88;2.00;;;22.30;99.90;;;;;;5032485;28;20017;-70
2021/07/28 04:40:51;;;;;;;2.22;2.03;;;22.30;99.90;;;;;;5032223;28;20108;-73
2021/07/28 04:43:17;;;;;;;2.75;1.77;;;22.30;99.90;;;;;;5032659;28;20381;-73
2021/07/28 04:45:43;;;;;;;3.65;2.30;;;22.30;99.90;;;;;;5032432;28;20041;-72
2021/07/28 04:48:08;;;;;;;2.53;1.90;;;22.30;99.90;;;;;;5032922;28;20365;-71
2021/07/28 04:50:35;;;;;;;2.45;1.80;;;22.30;99.90;;;;;;5032224;28;20591;-74
2021/07/28 04:53:01;;;;;;;2.97;2.00;;;22.30;99.90;;;;;;5031610;28;20029;-71
2021/07/28 04:55:27;;;;;;;3.17;1.80;;;22.30;99.90;;;;;;5031644;28;20035;-71
2021/07/28 04:57:52;;;;;;;3.45;1.92;;;22.20;99.90;;;;;;5032138;28;20112;-70
2021/07/28 05:00:18;;;;;;;2.85;1.88;;;22.20;99.90;;;;;;5032359;28;20029;-72
2021/07/28 05:02:44;;;;;;;2.97;2.05;;;22.20;99.90;;;;;;5032092;28;20408;-71
2021/07/28 05:05:10;;;;;;;2.03;1.70;;;22.30;99.90;;;;;;5032318;28;20124;-73
2021/07/28 05:07:35;;;;;;;2.47;1.70;;;22.30;99.90;;;;;;5031799;28;20402;-74
2021/07/28 05:10:01;;;;;;;2.45;1.40;;;22.30;99.90;;;;;;5032149;28;20533;-73
2021/07/28 05:12:27;;;;;;;2.35;1.90;;;22.30;99.90;;;;;;5032126;28;20104;-72
2021/07/28 05:14:52;;;;;;;2.17;1.63;;;22.30;99.90;;;;;;5032091;28;20053;-74
2021/07/28 05:17:20;;;;;;;2.03;1.67;;;22.30;99.90;;;;;;5031710;28;20389;-71
2021/07/28 05:19:45;;;;;;;3.00;1.90;;;22.40;99.90;;;;;;5031797;28;20021;-71
2021/07/28 05:22:11;;;;;;;3.30;1.95;;;22.40;99.90;;;;;;5032321;28;20064;-73
2021/07/28 05:24:37;;;;;;;3.45;1.83;;;22.40;99.90;;;;;;5031472;28;20030;-70
2021/07/28 05:27:02;;;;;;;2.67;1.83;;;22.50;99.90;;;;;;5030949;28;20046;-72
2021/07/28 05:29:28;;;;;;;3.17;2.00;;;22.50;99.90;;;;;;5017878;28;20021;-71
2021/07/28 05:31:54;;;;;;;2.85;1.70;;;22.50;99.90;;;;;;5012500;28;20041;-70
2021/07/28 05:34:19;;;;;;;3.30;2.00;;;22.50;99.90;;;;;;5031389;28;20034;-73
2021/07/28 05:36:45;;;;;;;3.38;1.67;;;22.60;99.90;;;;;;5031727;28;20473;-71
2021/07/28 05:39:10;;;;;;;2.40;2.03;;;22.60;99.90;;;;;;5014212;28;20033;-74
2021/07/28 05:41:36;;;;;;;2.70;1.88;;;22.60;99.90;;;;;;5022305;28;20025;-70
2021/07/28 05:44:07;;;;;;;2.42;1.85;;;22.60;99.90;;;;;;5027499;28;20025;-71
2021/07/28 05:46:36;;;;;;;2.90;1.70;;;22.60;99.90;;;;;;5030041;28;20831;-70
2021/07/28 05:49:02;;;;;;;2.95;1.80;;;22.70;99.90;;;;;;5031547;28;20551;-73
2021/07/28 05:51:28;;;;;;;2.17;1.98;;;22.70;99.90;;;;;;5030817;28;20025;-71
2021/07/28 05:53:53;;;;;;;2.42;1.80;;;22.70;99.90;;;;;;5031604;28;20109;-70
2021/07/28 05:56:19;;;;;;;4.30;2.00;;;22.80;99.90;;;;;;5030501;28;20037;-71
2021/07/28 05:58:44;;;;;;;3.42;2.15;;;22.80;99.90;;;;;;5009785;28;20040;-72
2021/07/28 06:01:10;;;;;;;2.67;1.92;;;22.80;99.90;;;;;;5012107;28;20032;-75
2021/07/28 06:03:36;;;;;;;2.33;1.63;;;22.80;99.90;;;;;;5029724;28;20091;-73
2021/07/28 06:06:02;;;;;;;2.85;1.50;;;22.80;99.90;;;;;;5030763;28;20053;-73
2021/07/28 06:08:27;;;;;;;2.70;2.00;;;22.80;99.90;;;;;;5031221;28;20369;-73
2021/07/28 06:10:53;;;;;;;3.38;2.10;;;22.80;99.90;;;;;;5031441;28;20025;-70
2021/07/28 06:13:19;;;;;;;2.72;1.85;;;22.80;99.90;;;;;;5030904;28;20037;-73
2021/07/28 06:15:47;;;;;;;2.80;2.00;;;22.80;99.90;;;;;;5031102;28;20028;-75
2021/07/28 06:18:13;;;;;;;3.20;1.67;;;22.80;99.90;;;;;;5030916;28;20083;-72
2021/07/28 06:20:39;;;;;;;2.38;1.75;;;22.80;99.90;;;;;;5030715;28;20034;-75
2021/07/28 06:23:04;;;;;;;2.45;1.80;;;22.90;99.90;;;;;;5031518;28;20095;-75
2021/07/28 06:25:30;;;;;;;2.83;1.85;;;22.90;99.90;;;;;;5030563;28;20038;-71
2021/07/28 06:27:56;;;;;;;3.03;1.90;;;22.90;99.90;;;;;;5030257;28;20080;-72
2021/07/28 06:30:21;;;;;;;3.22;1.85;;;22.90;99.90;;;;;;5018034;28;20034;-73
2021/07/28 06:32:47;;;;;;;2.15;1.42;;;22.90;99.90;;;;;;5011775;28;20030;-73
2021/07/28 06:35:13;;;;;;;3.63;1.80;;;22.90;99.90;;;;;;5016327;28;20021;-72
2021/07/28 06:37:39;;;;;;;4.05;1.80;;;22.90;99.90;;;;;;5031642;28;20069;-74
2021/07/28 06:40:06;;;;;;;4.13;1.95;;;22.80;99.90;;;;;;5031184;28;20025;-73
2021/07/28 06:42:31;;;;;;;2.28;1.58;;;22.90;99.90;;;;;;5030312;28;20032;-75
2021/07/28 06:44:57;;;;;;;2.15;1.70;;;22.90;99.90;;;;;;5030621;28;20022;-74
2021/07/28 06:47:22;;;;;;;2.95;1.88;;;22.90;99.90;;;;;;5030877;28;20104;-73
2021/07/28 06:49:48;;;;;;;2.08;1.80;;;22.90;99.90;;;;;;5030871;28;20033;-74
2021/07/28 06:52:13;;;;;;;3.60;1.80;;;22.90;99.90;;;;;;5030935;28;20162;-72
2021/07/28 06:54:39;;;;;;;2.83;1.70;;;22.80;99.90;;;;;;5031015;28;20033;-74
2021/07/28 06:57:05;;;;;;;4.80;1.50;;;22.80;99.90;;;;;;5030917;28;20053;-71
2021/07/28 06:59:30;;;;;;;2.78;1.80;;;22.90;99.90;;;;;;5029421;28;20088;-70
2021/07/28 07:01:56;;;;;;;2.72;1.63;;;22.90;99.90;;;;;;5011264;28;20475;-70
2021/07/28 07:04:21;;;;;;;2.95;1.73;;;22.90;99.90;;;;;;5000050;28;20018;-72
2021/07/28 07:06:47;;;;;;;3.13;1.70;;;22.90;99.90;;;;;;5029650;28;20037;-74
2021/07/28 07:09:13;;;;;;;2.78;1.75;;;22.90;99.90;;;;;;5030390;28;20029;-70
2021/07/28 07:11:38;;;;;;;4.22;2.03;;;22.90;99.90;;;;;;5029692;28;20068;-72
2021/07/28 07:14:04;;;;;;;3.35;1.83;;;22.90;99.90;;;;;;5030416;28;20025;-69
2021/07/28 07:16:29;;;;;;;3.17;1.98;;;22.90;99.90;;;;;;5032672;28;20104;-70
2021/07/28 07:18:55;;;;;;;3.15;1.85;;;22.90;99.90;;;;;;5034226;28;20492;-70
2021/07/28 07:21:21;;;;;;;3.00;1.67;;;22.90;99.90;;;;;;5033532;28;20026;-71
2021/07/28 07:23:46;;;;;;;3.15;1.80;;;22.90;99.90;;;;;;5034062;28;20038;-71
2021/07/28 07:26:12;;;;;;;2.75;1.80;;;22.80;99.90;;;;;;5033609;28;20116;-69
2021/07/28 07:28:38;;;;;;;2.92;1.50;;;22.80;99.90;;;;;;5034298;28;20049;-69
2021/07/28 07:31:09;;;;;;;2.75;1.88;;;22.80;99.90;;;;;;5003855;28;20061;-71
2021/07/28 07:33:38;;;;;;;3.03;2.03;;;22.80;99.90;;;;;;5004887;28;20025;-68
2021/07/28 07:36:14;;;;;;;3.45;1.80;;;22.80;99.90;;;;;;5033789;28;20056;-69
2021/07/28 07:38:40;;;;;;;2.08;1.70;;;22.80;99.90;;;;;;5034255;28;20044;-76
2021/07/28 07:41:07;;;;;;;3.78;1.80;;;22.80;99.90;;;;;;5033035;28;20546;-70
2021/07/28 07:43:34;;;;;;;3.40;1.80;;;22.90;99.90;;;;;;5033594;28;20032;-75
2021/07/28 07:45:59;;;;;;;3.85;2.00;;;22.90;99.90;;;;;;5032390;28;20041;-75
2021/07/28 07:48:26;;;;;;;5.10;2.40;;;22.90;99.90;;;;;;5033272;28;20580;-72
2021/07/28 07:50:53;;;;;;;9.48;2.30;;;22.80;99.90;;;;;;5033422;28;20053;-70
2021/07/28 07:53:19;;;;;;;4.50;2.50;;;22.90;99.90;;;;;;5033509;28;20021;-70
2021/07/28 07:55:45;;;;;;;5.30;2.40;;;22.80;99.90;;;;;;5031719;28;20029;-69
2021/07/28 07:58:10;;;;;;;4.38;2.15;;;22.70;99.90;;;;;;5032382;28;20022;-67
2021/07/28 08:00:36;;;;;;;5.72;2.85;;;22.80;99.90;;;;;;5033223;28;20021;-71
2021/07/28 08:03:02;;;;;;;5.97;2.70;;;22.70;99.90;;;;;;5033145;28;20848;-71
2021/07/28 08:05:27;;;;;;;9.57;2.90;;;22.70;99.90;;;;;;5032958;28;20029;-70
2021/07/28 08:07:53;;;;;;;5.22;2.10;;;22.70;99.90;;;;;;5033180;28;20366;-71
2021/07/28 08:10:19;;;;;;;8.13;2.40;;;22.80;99.90;;;;;;5033314;28;20043;-72
2021/07/28 08:12:44;;;;;;;5.38;2.22;;;22.60;99.90;;;;;;5033391;28;20116;-69
2021/07/28 08:15:10;;;;;;;6.80;2.85;;;22.60;99.90;;;;;;5032685;28;20030;-70
2021/07/28 08:17:36;;;;;;;7.30;2.70;;;22.50;99.90;;;;;;5032632;28;20021;-70
2021/07/28 08:20:04;;;;;;;6.25;2.40;;;22.40;99.90;;;;;;5032908;28;20368;-69
2021/07/28 08:22:30;;;;;;;6.65;2.50;;;22.30;99.90;;;;;;5032702;28;20025;-69
2021/07/28 08:24:55;;;;;;;6.28;2.40;;;22.20;99.90;;;;;;5032809;28;20029;-69
2021/07/28 08:27:23;;;;;;;6.43;2.40;;;22.10;99.90;;;;;;5032126;28;20480;-68
2021/07/28 08:29:48;;;;;;;8.15;2.50;;;22.20;99.90;;;;;;5032577;28;20033;-69
2021/07/28 08:32:14;;;;;;;3.90;2.42;;;22.20;99.90;;;;;;5032627;28;20436;-70
2021/07/28 08:34:40;;;;;;;6.72;2.42;;;22.30;99.90;;;;;;5015471;28;20539;-69
2021/07/28 08:37:06;;;;;;;6.18;2.40;;;22.40;99.90;;;;;;5032535;28;20029;-69
2021/07/28 08:39:31;;;;;;;6.43;2.60;;;22.40;99.90;;;;;;5032268;28;20034;-69
2021/07/28 08:42:04;;;;;;;6.07;2.83;;;22.30;99.90;;;;;;5032465;28;20030;-69
2021/07/28 08:44:33;;;;;;;4.20;2.30;;;22.20;99.90;;;;;;5032632;28;20022;-70
2021/07/28 08:46:59;;;;;;;7.15;2.50;;;22.40;99.90;;;;;;5032413;28;20040;-70
2021/07/28 08:49:26;;;;;;;4.20;1.95;;;22.40;99.90;;;;;;5031226;28;20033;-70
2021/07/28 08:51:53;;;;;;;7.93;2.22;;;22.40;99.90;;;;;;5014810;28;20539;-69
2021/07/28 08:54:18;;;;;;;5.68;2.40;;;22.40;99.90;;;;;;5032107;28;20033;-72
2021/07/28 08:56:44;;;;;;;7.85;2.40;;;22.50;99.90;;;;;;5031974;28;20026;-69
2021/07/28 08:59:28;;;;;;;6.35;2.42;;;22.50;99.90;;;;;;5032343;28;20029;-66
2021/07/28 09:01:55;;;;;;;6.82;2.60;;;22.60;99.90;;;;;;5023083;28;20029;-74
2021/07/28 09:04:22;;;;;;;5.30;2.67;;;22.80;99.90;;;;;;5025448;28;20029;-71
2021/07/28 09:06:47;;;;;;;5.45;2.47;;;22.80;99.90;;;;;;5032726;28;20056;-70
2021/07/28 09:09:13;;;;;;;7.63;2.47;;;22.80;99.90;;;;;;5044479;28;20104;-70
2021/07/28 09:11:59;;;;;;;4.57;2.15;;;22.90;99.90;;;;;;5032055;28;20025;-70
2021/07/28 09:14:34;;;;;;;6.72;2.70;;;22.80;99.90;;;;;;5031216;28;20100;-68
2021/07/28 09:17:15;;;;;;;5.63;2.20;;;22.90;99.90;;;;;;5030165;28;20034;-70
2021/07/28 09:19:48;;;;;;;5.13;2.50;;;22.90;99.90;;;;;;5039348;28;20025;-69
2021/07/28 09:22:18;;;;;;;5.18;2.38;;;22.90;99.90;;;;;;5028335;28;20057;-70
2021/07/28 09:24:47;;;;;;;7.15;2.30;;;23.00;99.90;;;;;;5028651;28;20029;-74
2021/07/28 09:27:52;;;;;;;4.45;2.22;;;23.00;99.90;;;;;;5030327;28;20044;-67
2021/07/28 09:30:24;;;;;;;3.15;1.92;;;22.90;99.90;;;;;;4949770;29;20394;-70
2021/07/28 09:33:02;;;;;;;3.85;2.20;;;23.30;99.90;;;;;;4950386;29;20439;-72
2021/07/28 09:35:46;;;;;;;4.63;2.22;;;23.30;99.90;;;;;;4995071;28;20038;-72
2021/07/28 09:38:22;;;;;;;8.07;2.60;;;23.10;99.90;;;;;;5011945;28;20470;-69
2021/07/28 09:40:48;;;;;;;3.83;2.00;;;23.10;99.90;;;;;;5012173;28;20532;-72
2021/07/28 09:43:13;;;;;;;5.10;2.00;;;23.10;99.90;;;;;;5011557;28;20030;-70
2021/07/28 09:45:39;;;;;;;5.95;2.20;;;23.00;99.90;;;;;;5021978;28;20099;-70
2021/07/28 09:48:05;;;;;;;4.88;2.45;;;23.10;99.90;;;;;;5031023;28;20033;-74
2021/07/28 09:50:32;;;;;;;4.85;2.20;;;23.00;99.90;;;;;;5023549;28;20029;-75
2021/07/28 09:53:09;;;;;;;4.53;2.15;;;23.10;99.90;;;;;;5022558;28;20358;-73
2021/07/28 09:55:45;;;;;;;5.28;2.03;;;23.10;99.90;;;;;;5030378;28;20063;-75
2021/07/28 09:58:14;;;;;;;5.55;2.00;;;23.00;99.90;;;;;;5026199;28;20021;-73
2021/07/28 10:00:40;;;;;;;4.30;1.92;;;23.10;99.90;;;;;;5009826;28;20506;-72
2021/07/28 10:03:07;;;;;;;3.88;1.80;;;23.00;99.90;;;;;;5030442;28;20036;-73
2021/07/28 10:05:36;;;;;;;4.07;2.20;;;22.90;99.90;;;;;;5024224;28;20436;-74
2021/07/28 10:08:05;;;;;;;5.78;2.30;;;22.90;99.90;;;;;;5016723;28;20030;-72
2021/07/28 10:10:31;;;;;;;4.90;2.03;;;23.00;99.90;;;;;;5013830;28;20465;-74
2021/07/28 10:12:58;;;;;;;3.60;1.80;;;22.90;99.90;;;;;;5033753;28;20036;-74
2021/07/28 10:15:26;;;;;;;4.03;1.95;;;22.90;99.90;;;;;;5042965;28;20112;-71
2021/07/28 10:17:53;;;;;;;4.30;2.00;;;22.90;99.90;;;;;;5028913;28;20503;-72
2021/07/28 10:20:19;;;;;;;3.70;1.90;;;22.80;99.90;;;;;;5012188;28;20033;-72
2021/07/28 10:22:45;;;;;;;3.83;1.90;;;22.90;99.90;;;;;;5029627;28;20121;-71
2021/07/28 10:25:19;;;;;;;3.50;1.90;;;22.80;99.90;;;;;;5014837;28;20509;-71
2021/07/28 10:27:48;;;;;;;6.03;1.88;;;22.80;99.90;;;;;;5043610;28;20029;-72
2021/07/28 10:30:14;;;;;;;5.15;2.05;;;22.90;99.90;;;;;;5025119;28;20060;-72
2021/07/28 10:32:42;;;;;;;3.50;1.90;;;22.90;99.90;;;;;;5030646;28;20500;-73
2021/07/28 10:35:20;;;;;;;2.70;1.90;;;22.90;99.90;;;;;;5019423;28;20600;-72
2021/07/28 10:37:46;;;;;;;6.28;2.22;;;22.90;99.90;;;;;;5028773;28;20021;-71
2021/07/28 10:40:24;;;;;;;5.05;2.58;;;22.90;99.90;;;;;;5007144;28;20014;-76
2021/07/28 10:42:49;;;;;;;3.97;2.58;;;23.00;99.90;;;;;;5020977;28;20036;-74
2021/07/28 10:45:17;;;;;;;4.82;2.70;;;22.90;99.90;;;;;;5021537;28;20412;-70
2021/07/28 10:47:53;;;;;;;3.58;2.45;;;22.90;99.90;;;;;;5020104;28;20053;-69
2021/07/28 10:50:22;;;;;;;4.85;2.33;;;22.80;99.90;;;;;;5022086;28;20045;-68
2021/07/28 10:52:54;;;;;;;4.45;2.00;;;22.90;99.90;;;;;;5021917;28;20025;-67
2021/07/28 10:55:23;;;;;;;4.18;2.30;;;23.00;99.90;;;;;;5022880;28;20026;-67
2021/07/28 10:58:07;;;;;;;4.10;2.40;;;23.30;99.90;;;;;;5022059;28;20021;-68
2021/07/28 11:00:39;;;;;;;3.53;2.25;;;23.30;99.90;;;;;;5023256;28;20488;-67
2021/07/28 11:03:07;;;;;;;3.45;1.85;;;23.50;99.90;;;;;;5020633;28;20445;-68
2021/07/28 11:05:34;;;;;;;5.82;2.05;;;23.40;99.90;;;;;;5024360;28;20045;-68
2021/07/28 11:08:03;;;;;;;2.60;1.70;;;23.40;99.90;;;;;;5023196;28;20087;-68
2021/07/28 11:10:34;;;;;;;3.22;1.60;;;23.30;99.90;;;;;;5024680;28;20022;-67
2021/07/28 11:13:07;;;;;;;2.80;1.80;;;23.20;99.90;;;;;;5029812;28;20045;-69
2021/07/28 11:15:33;;;;;;;2.28;1.50;;;23.10;99.90;;;;;;5032707;28;20026;-68
2021/07/28 11:17:59;;;;;;;2.03;1.30;;;23.10;99.90;;;;;;5022733;28;20106;-68
2021/07/28 11:20:33;;;;;;;3.35;1.60;;;23.20;99.90;;;;;;5022541;28;20033;-67
2021/07/28 11:23:21;;;;;;;2.90;1.50;;;23.10;99.90;;;;;;5024647;28;20188;-68
2021/07/28 11:25:55;;;;;;;3.10;1.42;;;23.10;99.90;;;;;;5026803;28;20025;-68
2021/07/28 11:28:21;;;;;;;2.25;1.30;;;23.10;99.90;;;;;;5021001;28;20021;-67
2021/07/28 11:31:08;;;;;;;4.00;1.65;;;23.10;99.90;;;;;;4998741;28;20021;-69
2021/07/28 11:33:34;;;;;;;5.38;1.50;;;23.10;99.90;;;;;;5033665;28;20045;-65
2021/07/28 11:36:01;;;;;;;2.33;1.20;;;23.20;99.90;;;;;;5033544;28;20017;-71
2021/07/28 11:38:31;;;;;;;6.50;1.27;;;23.20;99.90;;;;;;5032717;28;20035;-69
2021/07/28 11:40:58;;;;;;;4.65;1.70;;;23.30;99.90;;;;;;5037905;28;20076;-70
2021/07/28 11:43:39;;;;;;;5.47;1.52;;;23.30;99.90;;;;;;5031335;28;20064;-70
2021/07/28 11:46:16;;;;;;;4.13;1.50;;;23.20;99.90;;;;;;5020487;28;20429;-70
2021/07/28 11:48:46;;;;;;;2.65;1.40;;;23.20;99.90;;;;;;5025178;28;20120;-70
2021/07/28 11:51:31;;;;;;;3.97;1.65;;;23.20;99.90;;;;;;5033246;28;20068;-69
2021/07/28 11:54:14;;;;;;;4.63;1.50;;;23.10;99.90;;;;;;5021542;28;20040;-70
2021/07/28 11:56:53;;;;;;;3.22;1.67;;;23.10;99.90;;;;;;5029006;28;20029;-70
2021/07/28 11:59:24;;;;;;;2.35;1.30;;;23.10;99.90;;;;;;5013138;28;20124;-70
2021/07/28 12:01:54;;;;;;;2.35;1.50;;;23.10;99.90;;;;;;5013097;28;20033;-70
2021/07/28 12:04:25;;;;;;;3.55;1.35;;;23.20;99.90;;;;;;5032413;28;20564;-70
2021/07/28 12:06:52;;;;;;;2.35;1.35;;;23.20;99.90;;;;;;5032335;28;20069;-70
2021/07/28 12:09:22;;;;;;;3.47;1.50;;;23.10;99.90;;;;;;5032454;28;20030;-70
2021/07/28 12:12:05;;;;;;;2.80;1.50;;;23.20;99.90;;;;;;5032699;28;20026;-70
2021/07/28 12:14:39;;;;;;;3.20;1.35;;;23.20;99.90;;;;;;5032694;28;20025;-70
2021/07/28 12:17:23;;;;;;;4.10;1.70;;;23.20;99.90;;;;;;5032985;28;20424;-69
2021/07/28 12:19:59;;;;;;;3.53;1.42;;;23.20;99.90;;;;;;5032842;28;20029;-69
2021/07/28 12:22:31;;;;;;;4.35;1.50;;;23.20;99.90;;;;;;5032530;28;20600;-69
2021/07/28 12:25:15;;;;;;;3.17;1.67;;;23.20;99.90;;;;;;5014675;28;20037;-69
2021/07/28 12:27:56;;;;;;;;;;;23.20;99.90;;;;;;5033473;28;20060;-70
2021/07/28 12:30:35;;;;;;;2.42;1.50;;;23.20;99.90;;;;;;5031126;28;19913;-69
2021/07/28 12:33:15;;;;;;;4.38;1.80;;;23.30;99.90;;;;;;5032517;28;20032;-70
2021/07/28 12:35:46;;;;;;;2.13;1.48;;;23.20;99.90;;;;;;5032481;28;20049;-69
2021/07/28 12:38:20;;;;;;;2.95;1.30;;;23.30;99.90;;;;;;5032766;28;20431;-69
2021/07/28 12:41:03;;;;;;;1.80;1.25;;;23.30;99.90;;;;;;5032622;28;20025;-69
2021/07/28 12:43:34;;;;;;;2.10;1.25;;;23.30;99.90;;;;;;5031841;28;20105;-69
2021/07/28 12:46:02;;;;;;;2.35;1.50;;;23.20;99.90;;;;;;5052025;28;20134;-69
2021/07/28 12:48:29;;;;;;;2.75;1.33;;;23.20;99.90;;;;;;5051842;28;20025;-69
2021/07/28 12:50:56;;;;;;;2.78;1.33;;;23.20;99.90;;;;;;5051904;28;20028;-69
2021/07/28 12:53:24;;;;;;;2.33;1.17;;;23.20;99.90;;;;;;5051710;28;20024;-69